Time;durP1;ratioP1;P1;durP2;ratioP2;P2;SDS_P1;SDS_P2;PMS_P1;PMS_P2;Temp;Humidity;BMP_temperature;BMP_pressure;BME280_temperature;BME280_humidity;BME280_pressure;Samples;Min_cycle;Max_cycle;Signal;HPM_P1;HPM_P2
2022/03/02 00:01:20;;;;;;;26.92;15.02;;;1.00;83.90;;;;;;5030707;28;20031;-78
2022/03/02 00:03:46;;;;;;;28.58;16.00;;;1.10;84.10;;;;;;5030331;28;20443;-78
2022/03/02 00:06:11;;;;;;;24.73;16.05;;;1.00;84.50;;;;;;5027775;28;20029;-78
2022/03/02 00:08:37;;;;;;;33.17;17.30;;;1.00;84.80;;;;;;5037113;28;20068;-78
2022/03/02 00:11:03;;;;;;;28.90;15.57;;;0.90;84.90;;;;;;5024965;28;20026;-78
2022/03/02 00:13:29;;;;;;;28.45;16.80;;;0.80;85.00;;;;;;5039901;28;20452;-78
2022/03/02 00:15:55;;;;;;;30.58;16.05;;;0.80;84.90;;;;;;5041001;28;20115;-77
2022/03/02 00:18:20;;;;;;;29.40;16.30;;;0.80;85.00;;;;;;5027603;28;20499;-78
2022/03/02 00:20:46;;;;;;;25.63;15.10;;;0.70;84.90;;;;;;5040264;28;20456;-78
2022/03/02 00:23:12;;;;;;;28.80;15.57;;;0.70;85.00;;;;;;5044965;28;20029;-78
2022/03/02 00:25:38;;;;;;;25.52;15.18;;;0.70;85.10;;;;;;5041485;28;20043;-77
2022/03/02 00:28:03;;;;;;;29.63;16.92;;;0.70;85.40;;;;;;5015126;28;20033;-78
2022/03/02 00:30:30;;;;;;;26.42;15.60;;;0.60;85.40;;;;;;5043949;28;20119;-77
2022/03/02 00:32:56;;;;;;;27.40;14.45;;;0.60;85.50;;;;;;5040535;28;20041;-78
2022/03/02 00:35:21;;;;;;;25.05;15.23;;;0.60;85.40;;;;;;5049246;28;20029;-78
2022/03/02 00:37:47;;;;;;;25.17;14.25;;;0.60;85.20;;;;;;5026806;28;20021;-78
2022/03/02 00:40:13;;;;;;;28.33;15.15;;;0.50;85.00;;;;;;5040943;28;20021;-78
2022/03/02 00:42:39;;;;;;;27.50;15.93;;;0.50;84.80;;;;;;5025501;28;20121;-78
2022/03/02 00:45:05;;;;;;;24.88;15.38;;;0.60;85.00;;;;;;5033714;28;20105;-78
2022/03/02 00:47:31;;;;;;;26.52;16.05;;;0.60;85.00;;;;;;5039267;28;20055;-77
2022/03/02 00:49:56;;;;;;;25.17;15.55;;;0.70;85.20;;;;;;5020610;28;20033;-77
2022/03/02 00:52:22;;;;;;;27.48;16.40;;;0.70;85.10;;;;;;5027520;28;20040;-78
2022/03/02 00:54:48;;;;;;;25.33;15.50;;;0.70;85.00;;;;;;5045126;28;20159;-77
2022/03/02 00:57:13;;;;;;;26.98;16.38;;;0.80;84.90;;;;;;5037837;28;20535;-77
2022/03/02 00:59:39;;;;;;;29.10;15.30;;;0.80;85.00;;;;;;5035748;28;20451;-78
2022/03/02 01:02:05;;;;;;;27.25;15.82;;;0.80;85.20;;;;;;5039709;28;20051;-78
2022/03/02 01:04:30;;;;;;;28.08;16.48;;;0.90;85.50;;;;;;5045498;28;20064;-78
2022/03/02 01:06:56;;;;;;;28.98;15.95;;;0.90;85.70;;;;;;5028159;28;20095;-78
2022/03/02 01:09:21;;;;;;;26.45;15.55;;;0.90;85.60;;;;;;5042781;28;20413;-78
2022/03/02 01:11:47;;;;;;;26.85;16.08;;;0.90;85.30;;;;;;5039344;28;20123;-78
2022/03/02 01:14:13;;;;;;;31.45;16.00;;;1.00;85.00;;;;;;5027233;28;20638;-78
2022/03/02 01:16:38;;;;;;;30.40;15.68;;;1.10;85.10;;;;;;5035484;28;20314;-78
2022/03/02 01:19:04;;;;;;;31.30;16.27;;;1.10;85.20;;;;;;5039952;28;20017;-79
2022/03/02 01:21:30;;;;;;;27.25;16.38;;;1.10;85.30;;;;;;5024913;28;20085;-77
2022/03/02 01:23:57;;;;;;;26.63;15.55;;;1.10;85.20;;;;;;5036072;28;20369;-78
2022/03/02 01:26:29;;;;;;;28.80;16.15;;;1.10;85.00;;;;;;5050517;28;20146;-78
2022/03/02 01:28:55;;;;;;;27.77;15.75;;;1.00;84.70;;;;;;5027112;28;20132;-78
2022/03/02 01:31:22;;;;;;;27.52;16.08;;;1.00;84.60;;;;;;5026022;28;20026;-78
2022/03/02 01:33:49;;;;;;;29.58;16.55;;;1.00;84.60;;;;;;5036011;28;20551;-78
2022/03/02 01:36:15;;;;;;;29.45;16.45;;;1.00;84.70;;;;;;5036224;28;20033;-78
2022/03/02 01:38:40;;;;;;;25.33;15.45;;;1.00;84.70;;;;;;5032490;28;20025;-78
2022/03/02 01:41:06;;;;;;;29.65;16.40;;;1.00;84.70;;;;;;5045401;28;20116;-78
2022/03/02 01:43:32;;;;;;;28.70;16.33;;;1.00;84.70;;;;;;5027977;28;20017;-78
2022/03/02 01:45:57;;;;;;;26.42;15.80;;;1.00;84.80;;;;;;5022480;28;20099;-79
2022/03/02 01:48:23;;;;;;;27.58;16.17;;;1.00;84.90;;;;;;5045010;28;20425;-78
2022/03/02 01:50:49;;;;;;;28.10;15.70;;;0.90;84.80;;;;;;5039164;28;20025;-78
2022/03/02 01:53:14;;;;;;;28.35;16.17;;;0.90;84.80;;;;;;5034973;28;20033;-78
2022/03/02 01:55:40;;;;;;;28.73;16.40;;;1.00;84.90;;;;;;5026571;28;20111;-78
2022/03/02 01:58:05;;;;;;;25.23;15.23;;;1.00;85.00;;;;;;5035777;28;20112;-78
2022/03/02 02:00:31;;;;;;;25.55;15.27;;;0.90;85.00;;;;;;5034040;28;20400;-78
2022/03/02 02:02:57;;;;;;;29.38;15.63;;;1.00;85.10;;;;;;5028237;28;20031;-78
2022/03/02 02:05:23;;;;;;;31.75;15.50;;;1.00;85.10;;;;;;5035447;28;20148;-78
2022/03/02 02:07:49;;;;;;;29.35;15.07;;;1.00;85.20;;;;;;5046105;28;20345;-78
2022/03/02 02:10:14;;;;;;;26.85;15.90;;;0.90;85.20;;;;;;5027594;28;20033;-78
2022/03/02 02:12:41;;;;;;;29.08;16.38;;;1.00;85.20;;;;;;5039534;28;20874;-78
2022/03/02 02:15:09;;;;;;;25.60;16.73;;;0.90;85.10;;;;;;5043205;28;20041;-78
2022/03/02 02:17:35;;;;;;;27.23;15.85;;;0.90;85.20;;;;;;5029325;28;20040;-78
2022/03/02 02:20:01;;;;;;;27.92;15.63;;;1.00;85.20;;;;;;5027454;28;20625;-78
2022/03/02 02:22:27;;;;;;;25.80;15.60;;;0.90;85.20;;;;;;5027106;28;20044;-78
2022/03/02 02:24:52;;;;;;;26.30;15.55;;;1.00;85.20;;;;;;5035277;28;20029;-78
2022/03/02 02:27:18;;;;;;;29.13;15.70;;;1.00;85.30;;;;;;5042732;28;20053;-78
2022/03/02 02:29:46;;;;;;;25.10;15.93;;;1.00;85.40;;;;;;5025442;28;20387;-78
2022/03/02 02:32:12;;;;;;;22.92;13.95;;;1.00;85.40;;;;;;5028541;28;20024;-78
2022/03/02 02:34:37;;;;;;;26.45;15.68;;;1.00;85.30;;;;;;5043750;28;20041;-78
2022/03/02 02:37:05;;;;;;;28.75;15.55;;;1.00;85.10;;;;;;5022607;28;20357;-78
2022/03/02 02:39:31;;;;;;;26.55;15.07;;;1.10;85.00;;;;;;5020132;28;20029;-79
2022/03/02 02:42:06;;;;;;;26.92;15.95;;;1.00;84.80;;;;;;5044659;28;20516;-78
2022/03/02 02:44:34;;;;;;;24.33;15.15;;;1.10;84.70;;;;;;5025819;28;20029;-78
2022/03/02 02:46:59;;;;;;;25.58;15.52;;;1.00;84.60;;;;;;5028399;28;20068;-78
2022/03/02 02:49:25;;;;;;;25.23;14.80;;;1.10;84.90;;;;;;5023889;28;20126;-78
2022/03/02 02:51:53;;;;;;;24.17;15.07;;;1.10;85.20;;;;;;5015385;28;20120;-78
2022/03/02 02:54:22;;;;;;;26.77;15.32;;;1.10;85.40;;;;;;5026322;28;20407;-78
2022/03/02 02:56:48;;;;;;;26.10;14.95;;;1.10;85.70;;;;;;5011884;28;20053;-78
2022/03/02 02:59:14;;;;;;;22.67;14.35;;;1.00;85.70;;;;;;5020913;28;20052;-77
2022/03/02 03:01:39;;;;;;;27.25;15.30;;;1.00;85.60;;;;;;5028225;28;20472;-78
2022/03/02 03:04:06;;;;;;;26.88;15.38;;;1.00;85.30;;;;;;5027483;28;20387;-78
2022/03/02 03:06:32;;;;;;;23.90;14.30;;;1.00;85.20;;;;;;5044415;28;20032;-78
2022/03/02 03:08:58;;;;;;;29.30;14.90;;;1.00;85.10;;;;;;5045771;28;20389;-78
2022/03/02 03:11:23;;;;;;;23.67;13.60;;;1.00;85.10;;;;;;5027140;28;20033;-78
2022/03/02 03:13:49;;;;;;;25.60;15.35;;;1.00;85.10;;;;;;5044333;28;20043;-78
2022/03/02 03:16:14;;;;;;;26.17;15.13;;;1.00;84.90;;;;;;5017811;28;20435;-78
2022/03/02 03:18:40;;;;;;;23.48;14.30;;;1.00;84.50;;;;;;5042646;28;20021;-78
2022/03/02 03:21:05;;;;;;;26.15;13.98;;;1.00;84.30;;;;;;5021051;28;20029;-78
2022/03/02 03:23:31;;;;;;;25.65;14.32;;;1.00;84.20;;;;;;5028108;28;20120;-78
2022/03/02 03:25:56;;;;;;;24.83;15.48;;;1.00;84.20;;;;;;5043545;28;20040;-78
2022/03/02 03:28:22;;;;;;;24.55;14.23;;;1.00;84.20;;;;;;5025901;28;20021;-79
2022/03/02 03:30:47;;;;;;;26.88;15.23;;;1.00;84.20;;;;;;5027419;28;20028;-78
2022/03/02 03:33:13;;;;;;;26.50;15.38;;;1.00;84.20;;;;;;5023055;28;20048;-78
2022/03/02 03:35:39;;;;;;;27.35;14.85;;;1.00;84.20;;;;;;5017926;28;20354;-78
2022/03/02 03:38:04;;;;;;;23.80;14.98;;;1.10;84.20;;;;;;5018883;28;20675;-78
2022/03/02 03:40:30;;;;;;;26.25;15.70;;;1.00;84.20;;;;;;5024707;28;20500;-78
2022/03/02 03:42:56;;;;;;;26.17;14.48;;;1.10;84.20;;;;;;5024739;28;20029;-78
2022/03/02 03:45:22;;;;;;;24.13;15.25;;;1.10;83.80;;;;;;5022807;28;20427;-78
2022/03/02 03:47:48;;;;;;;26.58;15.25;;;1.10;83.80;;;;;;5024033;28;20036;-78
2022/03/02 03:50:14;;;;;;;26.98;15.00;;;1.10;83.90;;;;;;5018012;28;20120;-78
2022/03/02 03:52:39;;;;;;;23.65;14.70;;;1.00;84.00;;;;;;5023625;28;20026;-78
2022/03/02 03:55:08;;;;;;;29.27;15.05;;;1.00;83.90;;;;;;5023697;28;20128;-78
2022/03/02 03:57:34;;;;;;;23.90;14.65;;;1.00;83.90;;;;;;5001664;28;20051;-78
2022/03/02 03:59:59;;;;;;;25.02;14.10;;;0.90;83.80;;;;;;5026637;28;20109;-78
2022/03/02 04:02:25;;;;;;;25.27;14.02;;;0.90;83.80;;;;;;5024420;28;20441;-78
2022/03/02 04:04:51;;;;;;;22.60;14.05;;;0.90;83.70;;;;;;5016714;28;20036;-78
2022/03/02 04:07:16;;;;;;;24.52;15.45;;;0.90;83.90;;;;;;5042182;28;20039;-78
2022/03/02 04:09:42;;;;;;;26.13;13.85;;;0.90;84.30;;;;;;5020166;28;20061;-78
2022/03/02 04:12:07;;;;;;;22.58;13.40;;;0.80;84.50;;;;;;5038785;28;20104;-78
2022/03/02 04:14:33;;;;;;;28.08;14.15;;;0.80;84.40;;;;;;5019212;28;20354;-79
2022/03/02 04:16:58;;;;;;;28.77;14.25;;;0.80;84.30;;;;;;5027846;28;20048;-78
2022/03/02 04:19:24;;;;;;;23.08;13.07;;;0.70;84.00;;;;;;5022653;28;20033;-78
2022/03/02 04:21:50;;;;;;;25.23;13.55;;;0.70;83.70;;;;;;5021923;28;20113;-78
2022/03/02 04:24:15;;;;;;;23.50;12.98;;;0.70;83.20;;;;;;5025262;28;20085;-78
2022/03/02 04:26:41;;;;;;;20.88;12.05;;;0.70;83.20;;;;;;5024064;28;20037;-78
2022/03/02 04:29:07;;;;;;;22.90;13.60;;;0.70;83.50;;;;;;5015225;28;20030;-78
2022/03/02 04:31:32;;;;;;;20.90;13.20;;;0.70;83.40;;;;;;5022210;28;20116;-78
2022/03/02 04:33:58;;;;;;;21.50;13.90;;;0.60;83.60;;;;;;5022174;28;20136;-78
2022/03/02 04:36:23;;;;;;;23.45;13.50;;;0.60;83.70;;;;;;5029686;28;20033;-78
2022/03/02 04:38:49;;;;;;;25.65;13.82;;;0.50;83.90;;;;;;5019230;28;20036;-78
2022/03/02 04:41:14;;;;;;;22.88;13.80;;;0.40;84.00;;;;;;5027075;28;20048;-78
2022/03/02 04:43:40;;;;;;;26.08;13.43;;;0.40;84.20;;;;;;5022856;28;20144;-78
2022/03/02 04:46:05;;;;;;;24.15;14.15;;;0.40;84.40;;;;;;5013167;28;20112;-77
2022/03/02 04:48:31;;;;;;;24.27;13.63;;;0.30;84.50;;;;;;5026498;28;20029;-78
2022/03/02 04:50:57;;;;;;;23.33;12.75;;;0.30;84.70;;;;;;5024157;28;20444;-78
2022/03/02 04:53:23;;;;;;;23.25;13.85;;;0.20;84.80;;;;;;5014262;28;20074;-78
2022/03/02 04:55:50;;;;;;;23.23;13.93;;;0.20;85.00;;;;;;5022380;28;20493;-78
2022/03/02 04:58:16;;;;;;;23.45;13.48;;;0.10;85.20;;;;;;5041291;28;20087;-78
2022/03/02 05:00:41;;;;;;;26.10;14.25;;;0.10;85.30;;;;;;5023924;28;20491;-78
2022/03/02 05:03:07;;;;;;;23.48;13.77;;;0.10;85.30;;;;;;5023219;28;20032;-78
2022/03/02 05:05:38;;;;;;;26.88;13.50;;;0.10;85.60;;;;;;5025074;28;20033;-78
2022/03/02 05:08:07;;;;;;;22.50;13.40;;;0.20;86.10;;;;;;5022109;28;20550;-78
2022/03/02 05:10:33;;;;;;;26.10;14.32;;;0.20;86.30;;;;;;5012649;28;20462;-78
2022/03/02 05:12:58;;;;;;;27.55;14.95;;;0.10;86.50;;;;;;5023757;28;20121;-78
2022/03/02 05:15:24;;;;;;;24.27;14.30;;;0.10;86.50;;;;;;5016174;28;20799;-78
2022/03/02 05:17:50;;;;;;;25.42;15.25;;;0.00;86.50;;;;;;5021219;28;20055;-79
2022/03/02 05:20:18;;;;;;;28.88;14.85;;;0.00;86.60;;;;;;5021400;28;20081;-78
2022/03/02 05:22:44;;;;;;;27.73;15.63;;;0.00;86.60;;;;;;5022782;28;20084;-78
2022/03/02 05:25:12;;;;;;;27.58;15.27;;;0.00;86.60;;;;;;5014158;28;20118;-78
2022/03/02 05:27:39;;;;;;;28.33;15.38;;;-3276.70;86.70;;;;;;5016578;28;20421;-78
2022/03/02 05:30:06;;;;;;;25.95;15.13;;;0.00;86.90;;;;;;5024728;28;20508;-77
2022/03/02 05:32:31;;;;;;;28.70;15.70;;;-3276.70;86.80;;;;;;5025129;28;20049;-77
2022/03/02 05:34:57;;;;;;;31.05;15.73;;;-3276.70;86.80;;;;;;5033584;28;20034;-77
2022/03/02 05:37:23;;;;;;;30.48;16.55;;;-3276.70;87.00;;;;;;5027648;28;20051;-77
2022/03/02 05:39:48;;;;;;;28.98;15.80;;;-3276.70;87.30;;;;;;5039134;28;20036;-77
2022/03/02 05:42:14;;;;;;;28.83;16.55;;;-3276.60;87.50;;;;;;5035831;28;20432;-78
2022/03/02 05:44:40;;;;;;;27.55;16.05;;;-3276.60;87.60;;;;;;5017658;28;20061;-78
2022/03/02 05:47:05;;;;;;;32.60;16.67;;;-3276.50;87.80;;;;;;5041950;28;20076;-78
2022/03/02 05:49:31;;;;;;;33.83;19.17;;;-3276.50;87.90;;;;;;5026692;28;20503;-78
2022/03/02 05:51:57;;;;;;;31.20;17.02;;;-3276.50;88.00;;;;;;5040778;28;20442;-77
2022/03/02 05:54:22;;;;;;;33.38;18.23;;;-3276.40;87.90;;;;;;5021795;28;20040;-78
2022/03/02 05:56:48;;;;;;;32.80;18.42;;;-3276.30;88.20;;;;;;5038575;28;20192;-77
2022/03/02 05:59:15;;;;;;;30.60;17.90;;;-3276.40;88.30;;;;;;5024225;28;20453;-78
2022/03/02 06:01:41;;;;;;;30.95;17.60;;;-3276.30;88.30;;;;;;5045142;28;20029;-78
2022/03/02 06:04:07;;;;;;;39.33;19.92;;;-3276.20;88.40;;;;;;5032289;28;20124;-78
2022/03/02 06:06:34;;;;;;;30.83;18.42;;;-3276.30;88.50;;;;;;5024767;28;20044;-79
2022/03/02 06:09:04;;;;;;;31.13;18.45;;;-3276.20;88.50;;;;;;5031355;28;20057;-78
2022/03/02 06:11:30;;;;;;;34.25;18.45;;;-3276.20;88.70;;;;;;5028088;28;20350;-78
2022/03/02 06:13:56;;;;;;;30.92;17.50;;;-3276.30;88.80;;;;;;5021012;28;20045;-78
2022/03/02 06:16:22;;;;;;;33.28;18.08;;;-3276.30;88.60;;;;;;5044426;28;20086;-78
2022/03/02 06:18:48;;;;;;;30.80;17.90;;;-3276.30;88.70;;;;;;5026734;28;20532;-78
2022/03/02 06:21:22;;;;;;;32.55;19.15;;;-3276.30;88.80;;;;;;5041798;28;20092;-78
2022/03/02 06:23:48;;;;;;;31.15;17.50;;;-3276.20;88.60;;;;;;5041785;28;20037;-78
2022/03/02 06:26:14;;;;;;;26.33;16.83;;;-3276.10;88.70;;;;;;5044678;28;20020;-78
2022/03/02 06:28:40;;;;;;;34.78;18.52;;;-3276.30;88.90;;;;;;5025782;28;20021;-78
2022/03/02 06:31:06;;;;;;;28.33;17.45;;;-3276.30;88.60;;;;;;5024002;28;20031;-78
2022/03/02 06:33:31;;;;;;;34.92;18.75;;;-3276.30;88.50;;;;;;5036306;28;20052;-77
2022/03/02 06:35:57;;;;;;;34.35;18.25;;;-3276.20;88.40;;;;;;5025763;28;20128;-77
2022/03/02 06:38:24;;;;;;;30.60;18.45;;;-3276.20;88.40;;;;;;5024691;28;20025;-78
2022/03/02 06:40:58;;;;;;;30.10;18.17;;;-3276.20;88.50;;;;;;5031540;28;20013;-78
2022/03/02 06:43:26;;;;;;;29.98;18.38;;;-3276.20;88.70;;;;;;5041129;28;20067;-78
2022/03/02 06:46:05;;;;;;;32.80;18.10;;;-3276.20;88.70;;;;;;5043696;28;20026;-78
2022/03/02 06:48:34;;;;;;;30.75;17.98;;;-3276.10;88.70;;;;;;5025206;28;20128;-78
2022/03/02 06:51:01;;;;;;;29.08;17.85;;;-3276.20;88.80;;;;;;5028733;28;20449;-78
2022/03/02 06:53:35;;;;;;;30.48;17.65;;;-3276.20;88.60;;;;;;5029919;28;20037;-78
2022/03/02 06:56:06;;;;;;;33.35;18.48;;;-3276.20;88.60;;;;;;5043200;28;20029;-79
2022/03/02 06:58:41;;;;;;;31.10;17.48;;;-3276.20;88.50;;;;;;5042747;28;20101;-79
2022/03/02 07:01:09;;;;;;;31.55;18.63;;;-3276.20;88.20;;;;;;5027564;28;20028;-79
2022/03/02 07:03:42;;;;;;;29.83;18.10;;;-3276.30;88.10;;;;;;5040919;28;20140;-79
2022/03/02 07:06:08;;;;;;;28.33;16.83;;;-3276.20;87.80;;;;;;5019422;28;20041;-79
2022/03/02 07:08:34;;;;;;;30.20;17.83;;;-3276.10;87.80;;;;;;5046779;28;20037;-79
2022/03/02 07:11:00;;;;;;;26.58;16.63;;;-3276.30;87.90;;;;;;5041566;28;20025;-79
2022/03/02 07:13:27;;;;;;;28.55;16.55;;;-3276.40;87.30;;;;;;5017788;28;20479;-79
2022/03/02 07:15:53;;;;;;;31.55;16.88;;;-3276.50;86.90;;;;;;5045800;28;20457;-79
2022/03/02 07:18:19;;;;;;;28.13;16.80;;;-3276.50;86.60;;;;;;5021673;28;20049;-81
2022/03/02 07:20:47;;;;;;;24.13;16.27;;;-3276.60;86.50;;;;;;5023278;28;20029;-79
2022/03/02 07:23:16;;;;;;;31.13;16.85;;;-3276.60;86.30;;;;;;5023547;28;20029;-79
2022/03/02 07:25:44;;;;;;;30.70;16.33;;;-3276.60;86.20;;;;;;5030003;28;20029;-79
2022/03/02 07:28:11;;;;;;;28.98;16.23;;;-3276.60;86.40;;;;;;5026869;28;20364;-79
2022/03/02 07:30:37;;;;;;;29.17;16.30;;;0.00;86.10;;;;;;5049209;28;20033;-79
2022/03/02 07:33:04;;;;;;;25.52;16.27;;;0.00;86.10;;;;;;5040536;28;20057;-79
2022/03/02 07:35:32;;;;;;;28.45;15.43;;;0.20;86.40;;;;;;5044466;28;20060;-79
2022/03/02 07:37:58;;;;;;;25.60;15.80;;;0.40;86.20;;;;;;5025727;28;20372;-79
2022/03/02 07:40:23;;;;;;;27.70;16.23;;;0.50;85.20;;;;;;5037639;28;20072;-79
2022/03/02 07:42:50;;;;;;;29.15;16.92;;;0.80;85.20;;;;;;5028272;28;20409;-79
2022/03/02 07:45:16;;;;;;;24.20;16.05;;;1.00;85.30;;;;;;5044718;28;20031;-79
2022/03/02 07:47:42;;;;;;;28.38;15.57;;;1.10;84.70;;;;;;5041564;28;20071;-79
2022/03/02 07:50:09;;;;;;;27.13;15.98;;;1.50;84.30;;;;;;5048136;28;20057;-79
2022/03/02 07:52:37;;;;;;;27.02;16.08;;;1.60;83.70;;;;;;5023240;28;20041;-79
2022/03/02 07:55:09;;;;;;;26.73;15.90;;;1.70;83.30;;;;;;5039325;28;20029;-79
2022/03/02 07:57:36;;;;;;;27.63;16.17;;;1.70;82.70;;;;;;5037024;28;20392;-79
2022/03/02 08:00:04;;;;;;;22.15;14.85;;;1.90;82.80;;;;;;5040251;28;20130;-79
2022/03/02 08:02:31;;;;;;;29.00;15.82;;;2.00;81.60;;;;;;5024655;28;20032;-79
2022/03/02 08:04:56;;;;;;;24.75;15.00;;;2.20;81.10;;;;;;5043539;28;20086;-79
2022/03/02 08:07:22;;;;;;;25.50;15.45;;;2.30;81.00;;;;;;5040424;28;20037;-79
2022/03/02 08:09:51;;;;;;;26.50;16.08;;;2.40;80.80;;;;;;5038450;28;20029;-79
2022/03/02 08:12:19;;;;;;;25.67;15.93;;;2.60;80.90;;;;;;5026437;28;20104;-79
2022/03/02 08:14:45;;;;;;;25.88;14.85;;;2.70;80.40;;;;;;5029900;28;20127;-80
2022/03/02 08:17:10;;;;;;;22.92;13.63;;;2.80;79.40;;;;;;5029518;28;20560;-80
2022/03/02 08:19:36;;;;;;;22.80;14.18;;;3.10;79.70;;;;;;5042027;28;20078;-80
2022/03/02 08:22:04;;;;;;;27.42;14.07;;;3.20;77.60;;;;;;5041276;28;20131;-80
2022/03/02 08:24:31;;;;;;;21.75;13.95;;;3.60;77.40;;;;;;5048675;28;20365;-80
2022/03/02 08:26:59;;;;;;;22.42;14.20;;;4.10;78.30;;;;;;5027446;28;20055;-80
2022/03/02 08:29:30;;;;;;;20.83;12.88;;;4.30;75.30;;;;;;5031732;28;20029;-80
2022/03/02 08:31:59;;;;;;;21.52;11.45;;;4.80;75.30;;;;;;5034195;28;20044;-80
2022/03/02 08:34:26;;;;;;;17.38;10.40;;;4.70;67.30;;;;;;5045150;28;20045;-80
2022/03/02 08:36:53;;;;;;;18.70;10.48;;;5.00;68.50;;;;;;5038397;28;20107;-80
2022/03/02 08:39:19;;;;;;;17.58;10.32;;;5.60;70.00;;;;;;5021421;28;20027;-80
2022/03/02 08:41:45;;;;;;;20.73;10.45;;;5.90;67.40;;;;;;5024437;28;20037;-80
2022/03/02 08:44:12;;;;;;;16.98;9.98;;;5.60;63.00;;;;;;5026543;28;20021;-80
2022/03/02 08:46:39;;;;;;;17.95;10.52;;;6.00;64.30;;;;;;5021180;28;20460;-80
2022/03/02 08:49:05;;;;;;;18.35;10.57;;;6.10;62.40;;;;;;5023620;28;20033;-80
2022/03/02 08:51:33;;;;;;;16.52;9.45;;;6.30;63.20;;;;;;5026793;28;20135;-80
2022/03/02 08:54:00;;;;;;;19.15;10.07;;;6.40;59.90;;;;;;5026838;28;20461;-80
2022/03/02 08:56:26;;;;;;;16.35;9.85;;;6.60;63.10;;;;;;5020256;28;20029;-80
2022/03/02 08:58:53;;;;;;;15.77;10.07;;;6.80;60.00;;;;;;5042907;28;20025;-80
2022/03/02 09:01:19;;;;;;;18.38;11.15;;;7.20;60.60;;;;;;5033501;28;20394;-80
2022/03/02 09:03:51;;;;;;;17.35;11.40;;;7.00;59.70;;;;;;5029327;28;20072;-80
2022/03/02 09:06:19;;;;;;;18.38;11.70;;;7.10;61.60;;;;;;5034673;28;20036;-80
2022/03/02 09:08:45;;;;;;;17.50;12.02;;;7.10;61.10;;;;;;5039632;28;20560;-80
2022/03/02 09:11:10;;;;;;;18.13;11.25;;;7.10;62.30;;;;;;5021477;28;20128;-77
2022/03/02 09:13:37;;;;;;;17.23;10.90;;;7.20;61.30;;;;;;5020036;28;20178;-78
2022/03/02 09:16:04;;;;;;;18.23;10.55;;;7.40;62.00;;;;;;5032011;28;20028;-78
2022/03/02 09:18:30;;;;;;;18.42;10.95;;;7.90;59.00;;;;;;5022536;28;20033;-78
2022/03/02 09:21:00;;;;;;;13.98;8.73;;;8.00;58.90;;;;;;5016880;28;20080;-78
2022/03/02 09:23:29;;;;;;;14.00;8.40;;;7.70;51.70;;;;;;5026497;28;20055;-79
2022/03/02 09:26:03;;;;;;;14.45;8.77;;;7.90;51.90;;;;;;5026099;28;20029;-78
2022/03/02 09:28:34;;;;;;;15.07;9.23;;;7.90;53.10;;;;;;5029466;28;20168;-78
2022/03/02 09:31:02;;;;;;;;;;;8.20;52.60;;;;;;5016410;28;20128;-78
2022/03/02 09:33:28;;;;;;;14.02;8.13;;;8.30;53.60;;;;;;5032770;28;19924;-78
2022/03/02 09:35:56;;;;;;;17.38;9.23;;;8.20;51.10;;;;;;5033199;28;20116;-80
2022/03/02 09:38:23;;;;;;;16.38;9.30;;;8.30;52.40;;;;;;5041687;28;20020;-78
2022/03/02 09:40:50;;;;;;;15.48;9.02;;;8.30;52.90;;;;;;5039740;28;20029;-79
2022/03/02 09:43:19;;;;;;;12.50;8.60;;;8.50;53.90;;;;;;5024345;28;20037;-79
2022/03/02 09:45:49;;;;;;;17.35;9.50;;;8.30;50.40;;;;;;5036016;28;20075;-79
2022/03/02 09:48:27;;;;;;;15.02;8.75;;;8.20;52.40;;;;;;5036769;28;20040;-79
2022/03/02 09:51:02;;;;;;;15.07;9.27;;;8.70;52.70;;;;;;5037095;28;20539;-79
2022/03/02 09:53:30;;;;;;;16.60;8.70;;;8.70;52.90;;;;;;5024886;28;20032;-79
2022/03/02 09:56:01;;;;;;;12.13;7.57;;;9.00;51.10;;;;;;5043790;28;20105;-79
2022/03/02 09:58:27;;;;;;;15.02;7.82;;;9.30;46.30;;;;;;5021039;28;20048;-79
2022/03/02 10:00:55;;;;;;;15.68;7.72;;;9.30;46.70;;;;;;5019444;28;20035;-79
2022/03/02 10:03:24;;;;;;;12.90;6.63;;;8.90;45.10;;;;;;5018869;28;20033;-78
2022/03/02 10:05:52;;;;;;;13.45;7.88;;;9.10;44.10;;;;;;5042188;28;20455;-79
2022/03/02 10:08:23;;;;;;;12.23;6.90;;;9.50;43.70;;;;;;5033112;28;20145;-78
2022/03/02 10:10:49;;;;;;;11.05;6.70;;;9.30;43.50;;;;;;5005579;28;20048;-79
2022/03/02 10:13:17;;;;;;;13.98;8.10;;;9.10;41.60;;;;;;5038312;28;20128;-79
2022/03/02 10:15:44;;;;;;;12.70;7.30;;;9.20;44.30;;;;;;5035732;28;20029;-79
2022/03/02 10:18:12;;;;;;;16.33;6.97;;;9.30;44.00;;;;;;5018915;28;20056;-79
2022/03/02 10:20:43;;;;;;;14.13;6.82;;;9.60;44.50;;;;;;5029941;28;20037;-78
2022/03/02 10:23:24;;;;;;;10.85;6.85;;;9.50;42.70;;;;;;5020861;28;20077;-79
2022/03/02 10:25:59;;;;;;;11.68;7.18;;;9.80;43.60;;;;;;5038966;28;20036;-79
2022/03/02 10:28:29;;;;;;;11.15;7.05;;;9.40;40.70;;;;;;5026324;28;20037;-79
2022/03/02 10:31:13;;;;;;;10.93;6.32;;;9.80;42.60;;;;;;5036813;28;20040;-79
2022/03/02 10:33:45;;;;;;;13.00;6.85;;;9.50;40.40;;;;;;5037446;28;20056;-79
2022/03/02 10:36:11;;;;;;;13.38;6.95;;;9.90;41.80;;;;;;5023677;28;20106;-79
2022/03/02 10:38:59;;;;;;;13.65;7.22;;;9.70;40.90;;;;;;5038653;28;20045;-79
2022/03/02 10:41:27;;;;;;;11.82;7.18;;;9.60;42.40;;;;;;5038696;28;20108;-79
2022/03/02 10:44:21;;;;;;;12.23;7.93;;;9.80;42.30;;;;;;5037950;28;20054;-79
2022/03/02 10:46:55;;;;;;;12.85;7.28;;;9.70;42.20;;;;;;5036899;28;20063;-79
2022/03/02 10:49:22;;;;;;;12.50;6.82;;;10.10;42.40;;;;;;5034161;28;20152;-79
2022/03/02 10:51:48;;;;;;;12.65;7.47;;;9.90;39.60;;;;;;5036677;28;20033;-79
2022/03/02 10:54:21;;;;;;;13.35;7.00;;;9.70;40.70;;;;;;5019248;28;20025;-79
2022/03/02 10:56:51;;;;;;;12.25;6.57;;;9.60;39.80;;;;;;5026839;28;20115;-79
2022/03/02 10:59:21;;;;;;;11.60;6.63;;;9.80;39.30;;;;;;5024970;28;20180;-79
2022/03/02 11:01:49;;;;;;;12.50;7.35;;;9.30;37.70;;;;;;5040108;28;20026;-79
2022/03/02 11:04:18;;;;;;;13.52;7.32;;;9.60;38.70;;;;;;5047405;28;20064;-79
2022/03/02 11:06:44;;;;;;;11.30;7.18;;;9.80;40.10;;;;;;5016852;28;20036;-80
2022/03/02 11:09:09;;;;;;;12.80;6.70;;;9.90;39.00;;;;;;5027321;28;20173;-80
2022/03/02 11:11:38;;;;;;;12.55;6.97;;;9.60;38.20;;;;;;5038577;28;20036;-80
2022/03/02 11:14:05;;;;;;;14.23;7.28;;;9.80;38.70;;;;;;5027903;28;20388;-80
2022/03/02 11:16:31;;;;;;;11.63;6.85;;;10.10;39.30;;;;;;5022525;28;20032;-79
2022/03/02 11:19:08;;;;;;;14.50;8.10;;;10.10;39.10;;;;;;5016451;28;20124;-79
2022/03/02 11:21:37;;;;;;;12.57;7.03;;;10.10;38.20;;;;;;5043971;28;20107;-79
2022/03/02 11:24:04;;;;;;;11.57;6.43;;;10.10;38.60;;;;;;5021689;28;20021;-80
2022/03/02 11:26:36;;;;;;;11.15;6.82;;;10.30;37.80;;;;;;5033339;28;20104;-80
2022/03/02 11:29:17;;;;;;;12.63;7.43;;;10.20;39.60;;;;;;5042735;28;20021;-80
2022/03/02 11:31:50;;;;;;;13.43;7.35;;;10.00;37.60;;;;;;5044237;28;20094;-80
2022/03/02 11:34:28;;;;;;;12.98;6.95;;;10.40;37.50;;;;;;5016798;28;20049;-80
2022/03/02 11:36:58;;;;;;;12.07;7.28;;;10.70;37.20;;;;;;5024255;28;20145;-80
2022/03/02 11:39:26;;;;;;;13.63;7.35;;;10.70;37.80;;;;;;5042397;28;20283;-80
2022/03/02 11:42:00;;;;;;;12.20;7.85;;;10.70;38.60;;;;;;5023506;28;20025;-80
2022/03/02 11:44:41;;;;;;;15.15;7.63;;;10.40;37.10;;;;;;5017453;28;20452;-80
2022/03/02 11:47:09;;;;;;;13.27;7.45;;;10.80;37.70;;;;;;5020178;28;20136;-79
2022/03/02 11:49:50;;;;;;;13.75;7.70;;;10.30;36.80;;;;;;5020024;28;20037;-80
2022/03/02 11:52:17;;;;;;;15.55;7.70;;;11.00;38.00;;;;;;5017343;28;20438;-79
2022/03/02 11:54:59;;;;;;;12.10;7.95;;;11.20;39.00;;;;;;5029602;28;20033;-79
2022/03/02 11:57:27;;;;;;;12.10;7.18;;;11.60;38.60;;;;;;5025095;28;20479;-79
2022/03/02 12:00:19;;;;;;;11.02;7.13;;;11.50;38.40;;;;;;5017324;28;20021;-80
2022/03/02 12:02:46;;;;;;;12.05;7.53;;;11.50;36.50;;;;;;5028444;28;20493;-80
2022/03/02 12:05:12;;;;;;;11.93;7.18;;;11.60;37.00;;;;;;5014045;28;20056;-79
2022/03/02 12:07:49;;;;;;;13.48;8.15;;;12.10;39.50;;;;;;5022177;28;20124;-79
2022/03/02 12:10:21;;;;;;;11.90;7.28;;;12.20;37.70;;;;;;5024573;28;20049;-76
2022/03/02 12:12:47;;;;;;;11.90;7.40;;;12.10;39.30;;;;;;5024432;28;20121;-78
2022/03/02 12:15:14;;;;;;;12.43;7.75;;;12.40;38.60;;;;;;5020106;28;20095;-78
2022/03/02 12:17:39;;;;;;;12.15;7.45;;;12.50;37.10;;;;;;5027162;28;20033;-78
2022/03/02 12:20:10;;;;;;;11.45;7.75;;;12.20;36.20;;;;;;5027499;28;20502;-79
2022/03/02 12:22:41;;;;;;;12.38;8.25;;;12.30;38.80;;;;;;5021620;28;20446;-78
2022/03/02 12:25:12;;;;;;;16.02;7.93;;;12.40;37.80;;;;;;5027510;28;20163;-78
2022/03/02 12:27:39;;;;;;;11.60;7.80;;;12.50;38.10;;;;;;5019987;28;20187;-79
2022/03/02 12:30:08;;;;;;;13.27;7.75;;;13.00;39.50;;;;;;5041255;28;20041;-78
2022/03/02 12:32:36;;;;;;;14.57;7.72;;;13.10;36.90;;;;;;5036000;28;20041;-78
2022/03/02 12:35:08;;;;;;;12.70;7.65;;;13.00;36.70;;;;;;5011318;28;20037;-78